Grey Cloud Island, MN

9:48 AM CDT on October 24, 2014 (GMT -0500)
Grey Cloud Island | Change Station
CLOSE
Current Station
Personal Weather Station
Location: Grey Cloud Island, MN
Elevation: 700 ft
Nearby Weather Stations

Elev 700 ft 44.80 °N, 92.99 °W | Updated 15 seconds ago

Partly Cloudy
Partly Cloudy
52.8 °F
Feels Like 52.8 °F
N
1.0
Wind Variable Wind from South
Gusts 3.0 mph

Today
High -- | Low -- °F
--% Chance of Precip.
Yesterday
High -- | Low -- °F
Precip. -- in
7:39 AM 6:12 PM
New Moon, 1% visible
Pressure 29.90 in
Visibility 10.0 miles
Clouds Scattered Clouds 4400 ft
Dew Point 50 °F
Humidity 90%
Rainfall 0.00 in
Snow Depth Not available.
UV 1 out of 12
Pollen .90 out of 12
Ozone Good
PM2.5 Good
Flu Activity Sporadic
METAR KSGS 241430Z AUTO 15006KT 10SM SCT044 11/09 A2990 RMK AO2 T01110091

More Conditions Fewer Conditions

Pressure 29.90 in
Visibility 10.0 miles
Clouds Scattered Clouds 4400 ft
Dew Point 50 °F
Humidity 90%
Rainfall 0.00 in
Snow Depth Not available.
UV 1 out of 12
Pollen .90 out of 12
Ozone Good
PM2.5 Good
Flu Activity Sporadic
METAR KSGS 241430Z AUTO 15006KT 10SM SCT044 11/09 A2990 RMK AO2 T01110091

More Conditions Fewer Conditions

10-Day Weather Forecast

Almanac

Astronomy

Oct. 24, 2014 Rise Set
Actual Time 7:39 AM CDT 6:12 PM CDT
Civil Twilight 7:09 AM CDT 6:42 PM CDT
Nautical Twilight 6:35 AM CDT 7:16 PM CDT
Astronomical Twilight 6:01 AM CDT 7:50 PM CDT
Moon 8:20 AM CDT 6:50 PM CDT
Length of Visible Light 11h 32m
Length of Day
10h 32m
Tomorrow will be 2m 54s shorter.
New Moon, 1% of the Moon is Illuminated
Today
New Moon
Oct 30
First Quarter
Nov 6
Full
Nov 14
Last Quarter
Nov 22
New

Today's Extremes

State Highs State Lows

Community

WunderPhotos

Upload Photos

1,764,581 photos uploaded!

Nearby

Air Quality

  Air Quality AQ Index Pollutant
Yesterday Good
PM2.5
Yesterday Good
OZONE
Current Good
PM2.5
Current Good
OZONE
Friday Good
PM2.5
Saturday Good
PM2.5
Sunday Moderate
PM2.5
Monday Moderate
PM2.5
Tuesday Good
PM2.5

Snow Depth

Station Depth Elevation
No new snow has been reported.

Earthquake Activity

City Distance Mag. Time & Date
No recent earthquake activity has been reported nearby.
Minimum magnitude displayed is 2.5.

Coastal Water Temperatures

Place Temperature
No Stations Reporting

Nearby Weather Stations